»·PEaware :: N104PC KSAN-KLAS

N104PC :: KSAN-KLAS

FLIGHT INFORMATION

Flight Status: Arrived
Operator: Privately registered:
United States
More flights under this callsign
Pilot: Evan M. (16849)
Aircraft: CESSNA 750 CITATION 10
(C750)
More flights by this aircraft type
Origin: KSAN San Diego Intl-Lindbergh
United States
Destination: KLAS McCarran Intl
United States
More flights between these airports :: More routes between these airports
Route: +CWARD1 LAX J9 DAG MISEN KEPEC5
File this flight plan on PilotEdge
Remarks: PBN / A1B2B4B5 DOF / 171012 REG / N750SB RMK / TCAS SIMBRIEF
Altitude:
(Current/Filed)
43,000ft
Speed:
(Current/Filed)
493kts
Departed: 11-Oct-17 09:01 PM
Arrived: 11-Oct-17 09:53 PM
Distance/Time
Traveled:
225nm/0:52
Distance/Time
To Go:
Arrived

Flight Plot

Page will automatically refresh every two minutes.

Flight plan parsing failed; only flown route is shown


Map Options




Map Legend


Flown Route
Filed Route
Departure Airport
Arrival Airport
Navaid (VOR, NDB)
Fix

Horizontal Profiles

Position Reports

Time Latitude Longitude Heading Altitude Ground
Speed
11-Oct-17 20:22 32.732333 -117.176566 13 19ft 0kts
11-Oct-17 20:23 32.732333 -117.176566 13 19ft 0kts
11-Oct-17 20:24 32.732333 -117.176566 13 19ft 0kts
11-Oct-17 20:25 32.732333 -117.176566 13 19ft 0kts
11-Oct-17 20:26 32.732333 -117.176566 13 19ft 0kts
11-Oct-17 20:27 32.732333 -117.176566 13 19ft 0kts
11-Oct-17 20:28 32.732333 -117.176566 13 19ft 0kts
11-Oct-17 20:29 32.732333 -117.176566 13 19ft 0kts
11-Oct-17 20:30 32.732333 -117.176566 13 19ft 0kts
11-Oct-17 20:31 32.732333 -117.176566 13 19ft 0kts
11-Oct-17 20:32 32.732333 -117.176566 13 19ft 0kts
11-Oct-17 20:33 32.732333 -117.176566 13 19ft 0kts
11-Oct-17 20:34 32.732333 -117.176566 13 19ft 0kts
11-Oct-17 20:35 32.732333 -117.176566 13 19ft 0kts
11-Oct-17 20:36 32.732333 -117.176566 13 19ft 0kts
11-Oct-17 20:37 32.732333 -117.176566 13 19ft 0kts
11-Oct-17 20:38 32.732333 -117.176566 13 19ft 0kts
11-Oct-17 20:39 32.732333 -117.176566 13 19ft 0kts
11-Oct-17 20:40 32.732333 -117.176566 13 19ft 0kts
11-Oct-17 20:41 32.732333 -117.176566 13 19ft 0kts
11-Oct-17 20:42 32.732333 -117.176566 13 19ft 0kts
11-Oct-17 20:43 32.732333 -117.176566 13 19ft 0kts
11-Oct-17 20:44 32.732333 -117.176566 13 19ft 0kts
11-Oct-17 20:45 32.732333 -117.176566 13 19ft 0kts
11-Oct-17 20:46 32.732333 -117.176566 13 19ft 0kts
11-Oct-17 20:47 32.732333 -117.176566 13 19ft 0kts
11-Oct-17 20:48 32.732333 -117.176566 13 19ft 0kts
11-Oct-17 20:49 32.732333 -117.176566 13 19ft 0kts
11-Oct-17 20:50 32.732333 -117.176566 13 19ft 0kts
11-Oct-17 20:51 32.732333 -117.176566 13 19ft 0kts
11-Oct-17 20:53 32.732334 -117.176566 13 19ft 0kts
11-Oct-17 20:54 32.732334 -117.176566 13 19ft 0kts
11-Oct-17 20:55 32.732390 -117.176730 214 19ft 0kts
11-Oct-17 20:56 32.731063 -117.175470 105 19ft 12kts
11-Oct-17 20:57 32.730732 -117.175163 196 19ft 0kts
11-Oct-17 20:58 32.730732 -117.175163 196 19ft 0kts
11-Oct-17 20:59 32.730732 -117.175163 196 19ft 0kts
11-Oct-17 21:00 32.730732 -117.175163 196 19ft 0kts
11-Oct-17 21:01 32.730732 -117.175163 196 19ft 0kts
11-Oct-17 21:02 32.730732 -117.175163 196 19ft 0kts
11-Oct-17 21:03 32.730732 -117.175163 196 19ft 0kts
11-Oct-17 21:04 32.730485 -117.175184 185 19ft 8kts
11-Oct-17 21:05 32.730263 -117.176087 285 19ft 0kts
11-Oct-17 21:06 32.741892 -117.211936 299 1081ft 175kts
11-Oct-17 21:07 32.769744 -117.260929 310 2565ft 177kts
11-Oct-17 21:08 32.801002 -117.322599 305 3950ft 239kts
11-Oct-17 21:09 32.843810 -117.386989 305 6645ft 267kts
11-Oct-17 21:10 32.891705 -117.461419 303 10770ft 292kts
11-Oct-17 21:11 32.947787 -117.549128 304 11982ft 386kts
11-Oct-17 21:12 33.013169 -117.651475 304 11986ft 379kts
11-Oct-17 21:13 33.105672 -117.703459 344 15685ft 365kts
11-Oct-17 21:14 33.190712 -117.756744 314 19126ft 346kts
11-Oct-17 21:15 33.267255 -117.830616 316 21262ft 358kts
11-Oct-17 21:16 33.348447 -117.902534 316 23413ft 368kts
11-Oct-17 21:17 33.431748 -117.977143 315 25750ft 378kts
11-Oct-17 21:18 33.516862 -118.054244 315 28184ft 390kts
11-Oct-17 21:19 33.604838 -118.133037 314 30568ft 401kts
11-Oct-17 21:20 33.696633 -118.210517 330 33039ft 429kts
11-Oct-17 21:21 33.814485 -118.159865 50 34977ft 525kts
11-Oct-17 21:22 33.873709 -117.994920 70 37237ft 532kts
11-Oct-17 21:23 33.935568 -117.836288 43 39401ft 520kts
11-Oct-17 21:24 34.040949 -117.718432 36 40874ft 526kts
11-Oct-17 21:25 34.145722 -117.585597 52 40962ft 569kts
11-Oct-17 21:26 34.224192 -117.415080 55 40951ft 585kts
11-Oct-17 21:27 34.325312 -117.262764 43 40947ft 582kts
11-Oct-17 21:28 34.435415 -117.117689 42 40944ft 585kts
11-Oct-17 21:29 34.545355 -116.974400 42 40388ft 566kts
11-Oct-17 21:30 34.651143 -116.835731 42 38303ft 553kts
11-Oct-17 21:31 34.754969 -116.699979 42 36107ft 544kts
11-Oct-17 21:32 34.857829 -116.567964 39 33470ft 537kts
11-Oct-17 21:33 34.960645 -116.459831 34 33605ft 444kts
11-Oct-17 21:34 35.040233 -116.372367 35 33811ft 434kts
11-Oct-17 21:35 35.137902 -116.270677 37 30237ft 481kts
11-Oct-17 21:36 35.236114 -116.163465 38 25259ft 459kts
11-Oct-17 21:37 35.325256 -116.066244 38 22092ft 401kts
11-Oct-17 21:38 35.405674 -115.978278 39 19875ft 381kts
11-Oct-17 21:39 35.485655 -115.890788 39 17802ft 385kts
11-Oct-17 21:40 35.564162 -115.804740 40 15880ft 373kts
11-Oct-17 21:41 35.640909 -115.720307 41 13901ft 365kts
11-Oct-17 21:42 35.712184 -115.637197 47 12976ft 331kts
11-Oct-17 21:43 35.783789 -115.571344 4 12982ft 328kts
11-Oct-17 21:44 35.875076 -115.569966 357 12976ft 329kts
11-Oct-17 21:45 35.964822 -115.553123 32 12978ft 336kts
11-Oct-17 21:45 36.003764 -115.473607 74 13001ft 332kts
11-Oct-17 21:46 36.032428 -115.362471 87 11666ft 336kts
11-Oct-17 21:47 36.031076 -115.257710 92 9684ft 283kts
11-Oct-17 21:49 36.032667 -115.144636 92 7348ft 265kts
11-Oct-17 21:49 36.037073 -115.072140 63 5670ft 253kts
11-Oct-17 21:50 36.096723 -115.043129 12 4994ft 223kts
11-Oct-17 21:51 36.156138 -115.028742 12 4993ft 203kts
11-Oct-17 21:53 36.201835 -115.047057 251 5302ft 173kts
11-Oct-17 21:53 36.176951 -115.088700 224 5291ft 173kts
11-Oct-17 21:54 36.145690 -115.125100 213 3896ft 131kts
11-Oct-17 21:55 36.115223 -115.147379 202 2737ft 127kts
11-Oct-17 21:56 36.087650 -115.163156 205 2185ft 42kts
11-Oct-17 21:57 36.083951 -115.166032 227 2185ft 0kts
11-Oct-17 21:58 36.083423 -115.166766 236 2185ft 7kts
11-Oct-17 21:59 36.089437 -115.163879 325 2185ft 14kts
11-Oct-17 22:00 36.090356 -115.164079 24 2185ft 0kts
11-Oct-17 22:01 36.091487 -115.165235 58 2185ft 0kts
11-Oct-17 22:02 36.091487 -115.165235 58 2185ft 0kts
11-Oct-17 22:03 36.091487 -115.165235 58 2185ft 0kts
11-Oct-17 22:04 36.091487 -115.165235 58 2185ft 0kts
11-Oct-17 22:05 36.091487 -115.165235 58 2185ft 0kts
11-Oct-17 22:06 36.091487 -115.165235 58 2185ft 0kts
11-Oct-17 22:07 36.091487 -115.165235 58 2185ft 0kts
11-Oct-17 22:08 36.091487 -115.165235 58 2185ft 0kts

Navigation Log

Ident Type
Flight plan parsing failed, navigation log unavailable